createdAt,value
2017-11-29T00:00:20.847Z,3.07
2017-11-29T00:02:49.390Z,3.37
2017-11-29T00:05:16.917Z,4.30
2017-11-29T00:07:44.403Z,4.00
2017-11-29T00:10:12.168Z,4.20
2017-11-29T00:12:39.948Z,2.23
2017-11-29T00:15:08.539Z,1.73
2017-11-29T00:17:36.097Z,2.10
2017-11-29T00:20:04.393Z,7.10
2017-11-29T00:22:32.478Z,5.53
2017-11-29T00:25:00.051Z,3.43
2017-11-29T00:27:27.685Z,1.40
2017-11-29T00:29:55.200Z,7.93
2017-11-29T00:32:22.700Z,7.10
2017-11-29T00:34:50.202Z,2.30
2017-11-29T00:37:17.758Z,4.00
2017-11-29T00:39:45.563Z,6.83
2017-11-29T00:42:13.827Z,7.40
2017-11-29T00:44:42.103Z,4.73
2017-11-29T00:47:10.382Z,3.20
2017-11-29T00:49:38.661Z,2.73
2017-11-29T00:52:07.760Z,4.37
2017-11-29T00:54:36.306Z,8.23
2017-11-29T00:57:04.077Z,6.23
2017-11-29T00:59:31.826Z,4.83
2017-11-29T01:01:59.329Z,3.07
2017-11-29T01:04:27.615Z,4.20
2017-11-29T01:06:55.117Z,2.20
2017-11-29T01:09:22.961Z,2.60
2017-11-29T01:11:50.518Z,1.57
2017-11-29T01:14:18.065Z,1.70
2017-11-29T01:16:45.638Z,2.07
2017-11-29T01:19:13.208Z,3.73
2017-11-29T01:21:40.714Z,3.37
2017-11-29T01:24:09.287Z,3.57
2017-11-29T01:26:37.139Z,6.40
2017-11-29T01:29:04.646Z,3.90
2017-11-29T01:31:33.014Z,5.47
2017-11-29T01:34:01.316Z,6.43
2017-11-29T01:36:28.814Z,9.07
2017-11-29T01:38:56.302Z,9.13
2017-11-29T01:41:23.817Z,3.63
2017-11-29T01:43:51.661Z,4.07
2017-11-29T01:46:19.158Z,1.90
2017-11-29T01:48:46.670Z,5.57
2017-11-29T01:51:14.390Z,5.83
2017-11-29T01:53:43.368Z,4.80
2017-11-29T01:56:11.230Z,7.30
2017-11-29T01:58:38.724Z,10.77
2017-11-29T02:01:07.251Z,1.33
2017-11-29T02:03:34.749Z,2.90
2017-11-29T02:06:03.725Z,5.93
2017-11-29T02:08:31.549Z,9.83
2017-11-29T02:10:59.379Z,10.30
2017-11-29T02:13:28.920Z,4.30
2017-11-29T02:15:56.448Z,7.27
2017-11-29T02:18:23.942Z,5.60
2017-11-29T02:20:51.460Z,10.17
2017-11-29T02:23:20.075Z,6.93
2017-11-29T02:25:47.569Z,4.93
2017-11-29T02:28:15.320Z,10.50
2017-11-29T02:30:42.837Z,5.30
2017-11-29T02:33:10.688Z,4.60
2017-11-29T02:35:38.538Z,2.53
2017-11-29T02:38:06.818Z,8.03
2017-11-29T02:40:47.426Z,3.90
2017-11-29T02:43:14.923Z,6.83
2017-11-29T02:45:42.798Z,1.90
2017-11-29T02:48:10.288Z,2.07
2017-11-29T02:50:38.071Z,3.13
2017-11-29T02:53:05.599Z,4.90
2017-11-29T02:55:33.111Z,4.30
2017-11-29T02:58:00.957Z,2.93
2017-11-29T03:00:28.817Z,3.73
2017-11-29T03:02:57.056Z,2.60
2017-11-29T03:05:24.583Z,2.50
2017-11-29T03:07:52.086Z,3.83
2017-11-29T03:10:19.602Z,3.33
2017-11-29T03:12:47.096Z,1.63
2017-11-29T03:15:14.614Z,2.70
2017-11-29T03:17:42.129Z,6.40
2017-11-29T03:20:09.648Z,1.87
2017-11-29T03:22:37.942Z,1.60
2017-11-29T03:25:05.434Z,4.53
2017-11-29T03:27:32.956Z,3.40
2017-11-29T03:30:00.467Z,3.03
2017-11-29T03:32:27.976Z,5.93
2017-11-29T03:34:55.770Z,3.07
2017-11-29T03:37:24.542Z,2.70
2017-11-29T03:39:52.047Z,2.00
2017-11-29T03:42:20.390Z,3.00
2017-11-29T03:44:47.909Z,1.50
2017-11-29T03:47:15.412Z,6.33
2017-11-29T03:49:43.204Z,1.60
2017-11-29T03:52:11.780Z,2.50
2017-11-29T03:54:39.303Z,1.43
2017-11-29T03:57:06.850Z,2.13
2017-11-29T03:59:34.361Z,1.90
2017-11-29T04:02:01.870Z,3.80
2017-11-29T04:04:29.397Z,5.90
2017-11-29T04:06:57.893Z,4.10
2017-11-29T04:09:25.401Z,6.83
2017-11-29T04:11:52.907Z,1.60
2017-11-29T04:14:21.183Z,8.13
2017-11-29T04:16:49.798Z,3.37
2017-11-29T04:19:17.324Z,2.60
2017-11-29T04:21:45.114Z,7.40
2017-11-29T04:24:12.662Z,10.10
2017-11-29T04:26:40.548Z,2.93
2017-11-29T04:29:08.044Z,6.90
2017-11-29T04:31:36.344Z,3.80
2017-11-29T04:34:04.708Z,7.67
2017-11-29T04:36:33.001Z,8.00
2017-11-29T04:39:02.173Z,5.53
2017-11-29T04:41:29.941Z,4.03
2017-11-29T04:43:58.236Z,7.47
2017-11-29T04:46:25.762Z,2.40
2017-11-29T04:48:53.521Z,4.80
2017-11-29T04:51:21.767Z,6.53
2017-11-29T04:53:49.308Z,5.40
2017-11-29T04:56:16.815Z,3.03
2017-11-29T04:58:44.330Z,3.80
2017-11-29T05:01:12.446Z,5.90
2017-11-29T05:03:40.197Z,6.50
2017-11-29T05:06:08.143Z,7.10
2017-11-29T05:08:36.373Z,7.47
2017-11-29T05:11:05.338Z,5.30
2017-11-29T05:13:33.728Z,7.00
2017-11-29T05:16:01.995Z,7.30
2017-11-29T05:18:29.485Z,9.40
2017-11-29T05:20:57.288Z,9.73
2017-11-29T05:23:24.820Z,7.70
2017-11-29T05:25:53.264Z,11.63
2017-11-29T05:28:20.999Z,8.73
2017-11-29T05:30:48.515Z,11.33
2017-11-29T05:33:16.101Z,10.70
2017-11-29T05:35:44.071Z,13.93
2017-11-29T05:38:12.276Z,16.67
2017-11-29T05:40:40.725Z,11.40
2017-11-29T05:43:08.443Z,15.30
2017-11-29T05:45:35.987Z,22.30
2017-11-29T05:48:03.484Z,17.57
2017-11-29T05:50:31.034Z,22.17
2017-11-29T05:52:58.606Z,19.40
2017-11-29T05:55:26.131Z,15.57
2017-11-29T05:57:54.397Z,17.13
2017-11-29T06:00:22.143Z,19.17
2017-11-29T06:02:49.721Z,18.30
2017-11-29T06:05:17.229Z,24.37
2017-11-29T06:07:45.012Z,20.50
2017-11-29T06:10:13.258Z,14.40
2017-11-29T06:12:40.771Z,16.20
2017-11-29T06:15:08.298Z,21.10
2017-11-29T06:17:35.805Z,15.37
2017-11-29T06:20:04.135Z,14.00
2017-11-29T06:22:32.709Z,13.10
2017-11-29T06:25:00.227Z,12.00
2017-11-29T06:27:28.496Z,13.33
2017-11-29T06:29:56.786Z,15.63
2017-11-29T06:32:24.309Z,19.70
2017-11-29T06:34:51.817Z,14.60
2017-11-29T06:37:19.323Z,18.13
2017-11-29T06:39:46.841Z,17.97
2017-11-29T06:42:14.644Z,26.00
2017-11-29T06:44:42.174Z,18.37
2017-11-29T06:47:10.261Z,12.10
2017-11-29T06:49:37.757Z,12.93
2017-11-29T06:52:06.089Z,13.67
2017-11-29T06:54:33.610Z,18.53
2017-11-29T06:57:01.869Z,17.53
2017-11-29T06:59:30.152Z,13.53
2017-11-29T07:01:57.692Z,22.03
2017-11-29T07:04:25.987Z,21.93
2017-11-29T07:06:54.246Z,18.80
2017-11-29T07:09:22.572Z,22.03
2017-11-29T07:11:50.085Z,22.87
2017-11-29T07:14:17.628Z,25.83
2017-11-29T07:16:45.147Z,25.90
2017-11-29T07:19:12.664Z,16.17
2017-11-29T07:21:40.939Z,16.57
2017-11-29T07:24:09.219Z,18.07
2017-11-29T07:26:36.736Z,16.93
2017-11-29T07:29:04.282Z,13.23
2017-11-29T07:31:32.591Z,14.30
2017-11-29T07:34:00.124Z,19.87
2017-11-29T07:36:27.607Z,18.00
2017-11-29T07:38:55.105Z,15.87
2017-11-29T07:41:22.648Z,23.20
2017-11-29T07:43:50.215Z,19.40
2017-11-29T07:46:17.724Z,19.40
2017-11-29T07:48:45.222Z,13.43
2017-11-29T07:51:13.689Z,18.63
2017-11-29T07:53:42.696Z,17.60
2017-11-29T07:56:10.215Z,18.60
2017-11-29T07:58:37.746Z,23.43
2017-11-29T08:01:05.239Z,20.63
2017-11-29T08:03:33.697Z,15.87
2017-11-29T08:06:01.969Z,18.10
2017-11-29T08:08:29.473Z,24.30
2017-11-29T08:10:57.756Z,21.37
2017-11-29T08:13:26.863Z,27.10
2017-11-29T08:15:54.376Z,23.50
2017-11-29T08:18:21.876Z,24.00
2017-11-29T08:20:49.387Z,22.67
2017-11-29T08:23:16.908Z,25.37
2017-11-29T08:25:44.417Z,22.40
2017-11-29T08:28:11.944Z,21.93
2017-11-29T08:30:39.449Z,28.90
2017-11-29T08:33:07.731Z,21.90
2017-11-29T08:35:36.010Z,30.30
2017-11-29T08:38:03.530Z,23.23
2017-11-29T08:40:31.377Z,30.90
2017-11-29T08:42:58.860Z,33.03
2017-11-29T08:45:26.404Z,27.60
2017-11-29T08:47:53.893Z,35.47
2017-11-29T08:50:22.200Z,34.13
2017-11-29T08:52:49.701Z,36.73
2017-11-29T08:55:17.230Z,27.87
2017-11-29T08:57:44.731Z,30.63
2017-11-29T09:00:12.238Z,36.03
2017-11-29T09:02:39.753Z,40.47
2017-11-29T09:05:09.398Z,39.60
2017-11-29T09:07:36.932Z,35.13
2017-11-29T09:10:05.216Z,34.93
2017-11-29T09:12:33.942Z,32.80
2017-11-29T09:15:01.483Z,31.03
2017-11-29T09:17:29.822Z,40.77
2017-11-29T09:19:58.113Z,39.07
2017-11-29T09:22:25.619Z,35.67
2017-11-29T09:24:53.134Z,39.27
2017-11-29T09:27:20.617Z,50.40
2017-11-29T09:29:48.142Z,50.53
2017-11-29T09:32:16.432Z,45.60
2017-11-29T09:34:43.945Z,47.40
2017-11-29T09:37:11.461Z,55.37
2017-11-29T09:39:38.964Z,44.47
2017-11-29T09:42:06.478Z,36.30
2017-11-29T09:44:34.790Z,47.30
2017-11-29T09:47:02.308Z,47.00
2017-11-29T09:49:30.114Z,35.13
2017-11-29T09:51:57.882Z,45.80
2017-11-29T09:54:26.305Z,36.43
2017-11-29T09:56:53.820Z,37.13
2017-11-29T09:59:21.583Z,42.43
2017-11-29T10:01:49.143Z,36.77
2017-11-29T10:04:16.882Z,34.77
2017-11-29T10:06:44.394Z,31.50
2017-11-29T10:09:13.357Z,29.97
2017-11-29T10:11:40.861Z,28.33
2017-11-29T10:14:08.412Z,32.50
2017-11-29T10:16:36.591Z,37.57
2017-11-29T10:19:04.099Z,40.10
2017-11-29T10:21:32.438Z,37.40
2017-11-29T10:23:59.944Z,41.80
2017-11-29T10:26:27.456Z,39.17
2017-11-29T10:28:54.966Z,37.83
2017-11-29T10:31:23.976Z,38.83
2017-11-29T10:33:51.777Z,37.00
2017-11-29T10:36:19.608Z,39.47
2017-11-29T10:38:47.128Z,42.40
2017-11-29T10:41:14.640Z,49.60
2017-11-29T10:43:42.147Z,49.43
2017-11-29T10:46:10.592Z,42.40
2017-11-29T10:48:38.111Z,38.23
2017-11-29T10:51:06.624Z,43.13
2017-11-29T10:53:34.429Z,51.20
2017-11-29T11:06:49.909Z,40.97
2017-11-29T11:09:18.300Z,42.50
2017-11-29T11:11:45.874Z,41.40
2017-11-29T11:16:45.916Z,39.37
2017-11-29T11:19:16.810Z,42.87
2017-11-29T11:21:45.419Z,39.70
2017-11-29T11:24:14.008Z,44.77
2017-11-29T11:26:41.533Z,39.27
2017-11-29T11:29:10.464Z,40.03
2017-11-29T11:31:37.997Z,44.77
2017-11-29T11:34:06.748Z,37.20
2017-11-29T11:36:34.268Z,39.87
2017-11-29T11:39:01.791Z,39.60
2017-11-29T11:44:02.509Z,49.47
2017-11-29T11:46:30.274Z,43.07
2017-11-29T11:48:57.780Z,43.80
2017-11-29T11:51:26.245Z,42.30
2017-11-29T11:53:54.537Z,38.87
2017-11-29T11:56:22.089Z,47.60
2017-11-29T11:58:51.253Z,46.37
2017-11-29T12:01:18.886Z,43.67
2017-11-29T12:03:46.438Z,45.00
2017-11-29T12:06:13.953Z,46.20
2017-11-29T12:08:41.471Z,42.23
2017-11-29T12:11:10.129Z,45.33
2017-11-29T12:13:37.955Z,41.33
2017-11-29T12:16:06.576Z,47.33
2017-11-29T12:18:34.096Z,42.60
2017-11-29T12:21:02.420Z,42.57
2017-11-29T12:23:29.952Z,43.73
2017-11-29T12:25:57.689Z,40.07
2017-11-29T12:28:26.787Z,41.37
2017-11-29T12:30:55.074Z,34.47
2017-11-29T12:33:22.584Z,35.47
2017-11-29T12:35:50.125Z,34.93
2017-11-29T12:38:17.638Z,39.73
2017-11-29T12:40:45.917Z,41.77
2017-11-29T12:43:14.206Z,35.90
2017-11-29T12:45:41.704Z,36.87
2017-11-29T12:48:21.900Z,39.40
2017-11-29T12:51:01.893Z,40.57
2017-11-29T12:53:29.404Z,48.30
2017-11-29T12:55:57.679Z,44.57
2017-11-29T12:58:25.954Z,46.83
2017-11-29T13:00:54.227Z,48.40
2017-11-29T13:03:22.508Z,52.43
2017-11-29T13:05:50.036Z,50.43
2017-11-29T13:08:17.546Z,47.07
2017-11-29T13:10:45.059Z,48.87
2017-11-29T13:13:12.601Z,49.37
2017-11-29T13:15:40.087Z,50.60
2017-11-29T13:18:07.579Z,48.13
2017-11-29T13:20:35.093Z,45.13
2017-11-29T13:23:02.600Z,44.70
2017-11-29T13:25:30.116Z,45.43
2017-11-29T13:27:58.427Z,43.50
2017-11-29T13:30:25.981Z,43.77
2017-11-29T13:32:53.515Z,41.70
2017-11-29T13:35:21.008Z,52.93
2017-11-29T13:37:48.519Z,43.40
2017-11-29T13:40:16.038Z,39.33
2017-11-29T13:42:43.567Z,47.00
2017-11-29T13:45:11.836Z,44.47
2017-11-29T13:47:40.119Z,42.50
2017-11-29T13:50:08.385Z,39.50
2017-11-29T13:52:36.664Z,42.17
2017-11-29T13:55:04.967Z,36.07
2017-11-29T13:57:32.467Z,37.17
2017-11-29T14:00:00.049Z,38.60
2017-11-29T14:02:28.371Z,37.80
2017-11-29T14:04:55.874Z,51.73
2017-11-29T14:07:25.171Z,42.93
2017-11-29T14:09:52.659Z,44.97
2017-11-29T14:12:20.178Z,41.50
2017-11-29T14:14:47.669Z,37.40
2017-11-29T14:17:15.995Z,40.10
2017-11-29T14:19:43.549Z,38.57
2017-11-29T14:22:11.052Z,35.10
2017-11-29T14:24:39.325Z,33.93
2017-11-29T14:27:08.441Z,41.00
2017-11-29T14:29:35.929Z,36.97
2017-11-29T14:32:03.430Z,33.00
2017-11-29T14:34:30.920Z,32.97
2017-11-29T14:36:58.424Z,37.67
2017-11-29T14:39:25.956Z,30.20
2017-11-29T14:41:54.220Z,32.17
2017-11-29T14:44:21.757Z,35.43
2017-11-29T14:46:49.248Z,33.40
2017-11-29T14:49:16.766Z,30.20
2017-11-29T14:51:44.283Z,37.00
2017-11-29T14:54:11.866Z,33.73
2017-11-29T14:56:40.150Z,31.33
2017-11-29T14:59:08.430Z,34.13
2017-11-29T15:01:35.945Z,32.87
2017-11-29T15:04:03.448Z,31.77
2017-11-29T15:06:31.715Z,36.10
2017-11-29T15:08:59.998Z,35.93
2017-11-29T15:11:28.294Z,35.70
2017-11-29T15:13:55.810Z,34.30
2017-11-29T15:16:23.332Z,30.30
2017-11-29T15:18:50.823Z,40.80
2017-11-29T15:21:18.342Z,33.87
2017-11-29T15:23:45.845Z,34.60
2017-11-29T15:26:13.358Z,31.27
2017-11-29T15:28:40.887Z,35.60
2017-11-29T15:31:08.398Z,34.27
2017-11-29T15:33:35.909Z,33.00
2017-11-29T15:36:03.415Z,31.33
2017-11-29T15:38:30.917Z,30.20
2017-11-29T15:40:59.192Z,37.37
2017-11-29T15:43:26.696Z,31.87
2017-11-29T15:45:54.200Z,31.63
2017-11-29T15:48:22.455Z,33.57
2017-11-29T15:50:49.969Z,32.33
2017-11-29T15:53:17.462Z,34.57
2017-11-29T15:55:45.515Z,32.27
2017-11-29T15:58:13.178Z,28.37
2017-11-29T16:00:40.675Z,30.43
2017-11-29T16:03:08.925Z,26.33
2017-11-29T16:05:36.440Z,28.87
2017-11-29T16:08:03.938Z,31.57
2017-11-29T16:10:31.676Z,34.07
2017-11-29T16:12:59.183Z,29.00
2017-11-29T16:15:27.460Z,32.60
2017-11-29T16:17:54.983Z,30.60
2017-11-29T16:20:22.473Z,30.10
2017-11-29T16:22:49.940Z,29.23
2017-11-29T16:25:18.240Z,30.40
2017-11-29T16:27:45.729Z,28.97
2017-11-29T16:30:14.143Z,31.70
2017-11-29T16:32:41.646Z,33.10
2017-11-29T16:35:09.162Z,30.47
2017-11-29T16:37:37.436Z,31.40
2017-11-29T16:40:05.691Z,36.23
2017-11-29T16:42:33.968Z,30.73
2017-11-29T16:45:01.468Z,31.93
2017-11-29T16:47:29.730Z,35.70
2017-11-29T16:49:57.247Z,35.13
2017-11-29T16:52:24.767Z,32.47
2017-11-29T16:54:52.266Z,29.03
2017-11-29T16:57:19.776Z,29.67
2017-11-29T16:59:47.267Z,37.90
2017-11-29T17:02:14.765Z,33.33
2017-11-29T17:04:42.276Z,38.23
2017-11-29T17:07:09.776Z,35.07
2017-11-29T17:09:37.272Z,33.00
2017-11-29T17:12:06.101Z,35.80
2017-11-29T17:14:33.828Z,35.50
2017-11-29T17:17:01.351Z,36.07
2017-11-29T17:19:29.811Z,30.10
2017-11-29T17:21:57.362Z,35.03
2017-11-29T17:24:24.871Z,36.23
2017-11-29T17:26:52.395Z,37.57
2017-11-29T17:29:19.918Z,36.33
2017-11-29T17:31:47.450Z,36.63
2017-11-29T17:34:14.967Z,38.93
2017-11-29T17:36:43.272Z,37.80
2017-11-29T17:39:10.800Z,34.10
2017-11-29T17:41:38.308Z,33.80
2017-11-29T17:44:05.802Z,33.30
2017-11-29T17:46:33.298Z,39.13
2017-11-29T17:49:01.568Z,33.50
2017-11-29T17:51:30.726Z,38.07
2017-11-29T17:53:58.223Z,38.33
2017-11-29T17:56:26.490Z,38.27
2017-11-29T17:58:54.743Z,47.97
2017-11-29T18:01:22.265Z,50.70
2017-11-29T18:03:49.754Z,45.27
2017-11-29T18:06:17.261Z,48.60
2017-11-29T18:08:44.780Z,51.30
2017-11-29T18:11:12.275Z,43.00
2017-11-29T18:13:39.808Z,41.63
2017-11-29T18:16:08.074Z,44.27
2017-11-29T18:18:35.608Z,43.37
2017-11-29T18:21:03.106Z,43.10
2017-11-29T18:23:31.460Z,37.53
2017-11-29T18:25:58.990Z,31.00
2017-11-29T18:28:26.478Z,36.10
2017-11-29T18:30:53.992Z,33.23
2017-11-29T18:33:21.501Z,38.63
2017-11-29T18:35:49.767Z,39.60
2017-11-29T18:38:17.276Z,39.13
2017-11-29T18:40:44.786Z,46.43
2017-11-29T18:43:12.267Z,99.20
2017-11-29T18:45:40.537Z,101.57
2017-11-29T18:48:08.817Z,76.17
2017-11-29T18:50:37.080Z,67.00
2017-11-29T18:53:05.229Z,52.63
2017-11-29T18:55:33.597Z,44.30
2017-11-29T18:58:01.114Z,46.27
2017-11-29T19:00:28.645Z,41.50
2017-11-29T19:02:56.130Z,50.53
2017-11-29T19:05:23.623Z,54.10
2017-11-29T19:07:51.129Z,63.70
2017-11-29T19:10:18.648Z,59.33
2017-11-29T19:12:46.148Z,71.80
2017-11-29T19:15:14.433Z,82.80
2017-11-29T19:17:42.700Z,67.97
2017-11-29T19:20:11.006Z,70.80
2017-11-29T19:22:38.523Z,62.53
2017-11-29T19:25:06.777Z,74.30
2017-11-29T19:27:34.286Z,70.10
2017-11-29T19:30:01.789Z,54.60
2017-11-29T19:32:29.290Z,52.27
2017-11-29T19:34:56.804Z,47.20
2017-11-29T19:37:24.300Z,63.03
2017-11-29T19:39:53.309Z,55.03
2017-11-29T19:42:20.841Z,50.40
2017-11-29T19:44:49.119Z,59.87
2017-11-29T19:47:17.513Z,50.53
2017-11-29T19:49:45.689Z,49.97
2017-11-29T19:52:13.193Z,64.17
2017-11-29T19:54:40.741Z,56.50
2017-11-29T19:57:08.595Z,48.67
2017-11-29T19:59:36.114Z,77.97
2017-11-29T20:02:04.374Z,47.90
2017-11-29T20:04:31.868Z,54.57
2017-11-29T20:06:59.376Z,39.60
2017-11-29T20:09:26.885Z,44.10
2017-11-29T20:11:55.178Z,47.97
2017-11-29T20:14:22.680Z,39.70
2017-11-29T20:16:50.956Z,42.10
2017-11-29T20:19:18.493Z,43.23
2017-11-29T20:21:45.992Z,45.80
2017-11-29T20:24:14.286Z,44.03
2017-11-29T20:26:41.794Z,53.60
2017-11-29T20:29:09.338Z,49.47
2017-11-29T20:31:36.828Z,70.23
2017-11-29T20:34:05.108Z,52.70
2017-11-29T20:36:33.381Z,46.47
2017-11-29T20:39:01.656Z,42.40
2017-11-29T20:41:30.043Z,54.40
2017-11-29T20:43:58.325Z,45.80
2017-11-29T20:46:25.841Z,47.30
2017-11-29T20:48:53.338Z,42.53
2017-11-29T20:51:21.648Z,45.27
2017-11-29T20:53:49.177Z,41.97
2017-11-29T20:56:16.808Z,46.60
2017-11-29T20:58:44.308Z,61.13
2017-11-29T21:01:11.805Z,41.13
2017-11-29T21:03:39.315Z,28.83
2017-11-29T21:06:07.531Z,35.53
2017-11-29T21:08:35.029Z,29.93
2017-11-29T21:11:03.340Z,34.87
2017-11-29T21:13:30.913Z,28.00
2017-11-29T21:15:58.398Z,25.07
2017-11-29T21:18:26.694Z,29.47
2017-11-29T21:20:54.985Z,20.77
2017-11-29T21:25:54.990Z,15.03
2017-11-29T21:28:22.468Z,14.53
2017-11-29T21:30:50.757Z,20.10
2017-11-29T21:33:18.264Z,22.10
2017-11-29T21:35:45.755Z,15.77
2017-11-29T21:38:14.024Z,20.47
2017-11-29T21:40:42.320Z,16.73
2017-11-29T21:43:09.825Z,16.97
2017-11-29T21:45:37.337Z,13.00
2017-11-29T21:48:04.820Z,18.93
2017-11-29T21:50:32.316Z,18.00
2017-11-29T21:52:59.811Z,16.07
2017-11-29T21:55:27.317Z,23.43
2017-11-29T21:57:54.814Z,18.67
2017-11-29T22:00:23.079Z,18.47
2017-11-29T22:02:51.354Z,14.90
2017-11-29T22:05:19.612Z,16.97
2017-11-29T22:07:47.126Z,14.07
2017-11-29T22:10:14.620Z,14.63
2017-11-29T22:12:42.118Z,16.20
2017-11-29T22:15:09.613Z,16.60
2017-11-29T22:17:37.108Z,14.70
2017-11-29T22:20:04.619Z,20.10
2017-11-29T22:22:32.127Z,12.47
2017-11-29T22:25:00.419Z,10.23
2017-11-29T22:27:28.738Z,15.73
2017-11-29T22:29:56.219Z,22.80
2017-11-29T22:32:23.718Z,13.83
2017-11-29T22:34:51.972Z,13.27
2017-11-29T22:37:20.223Z,12.20
2017-11-29T22:39:47.725Z,14.13
2017-11-29T22:42:15.213Z,13.20
2017-11-29T22:44:42.707Z,11.67
2017-11-29T22:47:10.216Z,13.27
2017-11-29T22:49:37.706Z,16.47
2017-11-29T22:52:05.202Z,17.43
2017-11-29T22:54:33.481Z,20.60
2017-11-29T22:57:01.753Z,12.63
2017-11-29T22:59:30.306Z,17.33
2017-11-29T23:01:57.843Z,16.80
2017-11-29T23:04:25.339Z,13.60
2017-11-29T23:06:52.847Z,14.63
2017-11-29T23:09:20.347Z,8.50
2017-11-29T23:11:47.848Z,11.00
2017-11-29T23:14:15.399Z,8.60
2017-11-29T23:16:42.885Z,11.13
2017-11-29T23:19:11.126Z,8.33
2017-11-29T23:21:39.482Z,8.37
2017-11-29T23:24:08.790Z,10.33
2017-11-29T23:26:37.052Z,4.30
2017-11-29T23:29:05.320Z,10.27
2017-11-29T23:31:32.818Z,12.17
2017-11-29T23:34:00.813Z,7.10
2017-11-29T23:36:28.327Z,6.10
2017-11-29T23:38:56.575Z,6.70
2017-11-29T23:41:24.100Z,4.73
2017-11-29T23:43:51.624Z,6.77
2017-11-29T23:46:19.147Z,7.63
2017-11-29T23:48:47.008Z,5.63
2017-11-29T23:51:14.512Z,6.17
2017-11-29T23:53:42.016Z,7.00
2017-11-29T23:56:09.614Z,5.40
2017-11-29T23:58:37.889Z,4.43
